createdAt,value
2019-05-14T00:01:15.337Z,3.07
2019-05-14T00:04:36.759Z,3.09
2019-05-14T00:06:16.195Z,2.85
2019-05-14T00:07:55.773Z,2.95
2019-05-14T00:09:35.642Z,2.88
2019-05-14T00:11:16.434Z,3.07
2019-05-14T00:12:55.862Z,3.06
2019-05-14T00:14:45.651Z,3.1
2019-05-14T00:18:06.219Z,3.19
2019-05-14T00:19:45.652Z,3.2
2019-05-14T00:21:25.099Z,3.09
2019-05-14T00:23:04.724Z,3.02
2019-05-14T00:24:45.018Z,3.17
2019-05-14T00:26:24.351Z,3.2
2019-05-14T00:28:04.697Z,3.31
2019-05-14T00:29:45.165Z,3.19
2019-05-14T00:31:24.749Z,3.2
2019-05-14T00:33:04.629Z,3.19
2019-05-14T00:34:45.186Z,3.3
2019-05-14T00:36:24.913Z,3.37
2019-05-14T00:38:04.763Z,3.27
2019-05-14T00:39:44.992Z,3.3
2019-05-14T00:41:24.813Z,3.46
2019-05-14T00:43:06.005Z,3.31
2019-05-14T00:45:01.162Z,3.29
2019-05-14T00:46:42.753Z,3.45
2019-05-14T00:50:05.542Z,3.58
2019-05-14T00:51:44.972Z,3.29
2019-05-14T00:53:24.771Z,3.23
2019-05-14T00:55:04.480Z,3.58
2019-05-14T00:56:45.037Z,3.32
2019-05-14T00:58:25.073Z,3.47
2019-05-14T01:00:04.502Z,3.52
2019-05-14T01:01:45.855Z,3.48
2019-05-14T01:03:25.381Z,3.28
2019-05-14T01:05:05.263Z,3.43
2019-05-14T01:06:45.403Z,3.49
2019-05-14T01:08:24.909Z,3.5
2019-05-14T01:10:04.640Z,3.6
2019-05-14T01:11:45.385Z,3.42
2019-05-14T01:13:24.667Z,3.44
2019-05-14T01:15:15.803Z,3.57
2019-05-14T01:16:55.149Z,3.64
2019-05-14T01:18:35.636Z,3.45
2019-05-14T01:20:15.141Z,3.49
2019-05-14T01:21:54.529Z,3.41
2019-05-14T01:23:35.571Z,3.45
2019-05-14T01:25:27.898Z,3.67
2019-05-14T01:28:07.643Z,3.79
2019-05-14T01:29:52.507Z,3.78
2019-05-14T01:31:34.627Z,3.58
2019-05-14T01:33:15.195Z,3.66
2019-05-14T01:34:55.609Z,3.51
2019-05-14T01:36:35.505Z,3.67
2019-05-14T01:38:15.068Z,3.59
2019-05-14T01:39:55.345Z,3.76
2019-05-14T01:41:35.106Z,3.63
2019-05-14T01:43:14.940Z,3.69
2019-05-14T01:44:55.342Z,3.6
2019-05-14T01:46:35.120Z,3.58
2019-05-14T01:48:15.048Z,3.67
2019-05-14T01:49:54.925Z,3.9
2019-05-14T01:51:35.034Z,3.65
2019-05-14T01:53:15.014Z,3.79
2019-05-14T01:54:55.004Z,3.68
2019-05-14T01:56:35.207Z,3.79
2019-05-14T01:58:14.919Z,4.01
2019-05-14T01:59:55.124Z,3.62
2019-05-14T02:01:34.953Z,3.81
2019-05-14T02:03:15.496Z,3.64
2019-05-14T02:04:54.907Z,3.49
2019-05-14T02:06:35.179Z,3.63
2019-05-14T02:08:15.560Z,3.59
2019-05-14T02:09:55.247Z,3.79
2019-05-14T02:11:35.464Z,3.87
2019-05-14T02:13:15.647Z,3.7
2019-05-14T02:14:55.314Z,3.89
2019-05-14T02:16:34.747Z,3.82
2019-05-14T02:18:13.780Z,4
2019-05-14T02:19:54.282Z,3.94
2019-05-14T02:21:35.086Z,3.89
2019-05-14T02:24:55.369Z,4.14
2019-05-14T02:26:36.322Z,4.1
2019-05-14T02:28:25.285Z,4.16
2019-05-14T02:30:05.456Z,3.86
2019-05-14T02:31:44.920Z,3.95
2019-05-14T02:33:32.380Z,3.92
2019-05-14T02:35:13.336Z,3.93
2019-05-14T02:36:53.290Z,4.1
2019-05-14T02:38:33.483Z,4.07
2019-05-14T02:40:13.472Z,4.2
2019-05-14T02:41:53.204Z,4.2
2019-05-14T02:43:32.985Z,4.35
2019-05-14T02:45:12.594Z,4.15
2019-05-14T02:46:53.984Z,4
2019-05-14T02:48:33.438Z,4.05
2019-05-14T02:51:53.921Z,4.59
2019-05-14T02:53:33.481Z,4.07
2019-05-14T02:55:13.049Z,3.98
2019-05-14T02:56:53.226Z,4.36
2019-05-14T03:00:22.757Z,4.47
2019-05-14T03:03:43.570Z,4.43
2019-05-14T03:05:22.937Z,4.35
2019-05-14T03:07:02.721Z,4.54
2019-05-14T03:08:42.505Z,4.61
2019-05-14T03:10:22.853Z,4.62
2019-05-14T03:12:03.092Z,4.54
2019-05-14T03:15:23.601Z,4.83
2019-05-14T03:17:02.560Z,4.68
2019-05-14T03:18:42.553Z,4.59
2019-05-14T03:20:23.054Z,4.79
2019-05-14T03:22:03.615Z,4.5
2019-05-14T03:23:43.151Z,4.55
2019-05-14T03:25:22.735Z,4.46
2019-05-14T03:27:02.264Z,4.68
2019-05-14T03:28:43.308Z,4.67
2019-05-14T03:30:31.539Z,4.7
2019-05-14T03:32:21.705Z,4.89
2019-05-14T03:34:06.143Z,4.68
2019-05-14T03:37:40.908Z,4.8
2019-05-14T03:39:22.404Z,4.88
2019-05-14T03:41:03.666Z,4.93
2019-05-14T03:42:42.859Z,5.1
2019-05-14T03:44:23.280Z,5.14
2019-05-14T03:46:02.916Z,4.91
2019-05-14T03:47:42.803Z,4.75
2019-05-14T03:49:23.350Z,4.78
2019-05-14T03:51:04.052Z,5.09
2019-05-14T03:54:33.378Z,6.09
2019-05-14T03:57:53.723Z,6.62
2019-05-14T03:59:33.488Z,6.25
2019-05-14T04:01:13.321Z,5.97
2019-05-14T04:02:52.676Z,5.8
2019-05-14T04:04:33.264Z,5.69
2019-05-14T04:06:13.529Z,5.32
2019-05-14T04:07:53.785Z,4.94
2019-05-14T04:09:33.255Z,5.18
2019-05-14T04:11:13.252Z,5.05
2019-05-14T04:12:52.666Z,4.92
2019-05-14T04:14:32.698Z,4.74
2019-05-14T04:16:12.132Z,4.77
2019-05-14T04:17:53.602Z,4.7
2019-05-14T04:19:33.206Z,4.8
2019-05-14T04:21:13.534Z,4.68
2019-05-14T04:24:43.008Z,4.64
2019-05-14T04:26:23.423Z,5.08
2019-05-14T04:28:02.551Z,4.82
2019-05-14T04:29:43.071Z,5.24
2019-05-14T04:31:23.071Z,5.2
2019-05-14T04:33:02.360Z,4.58
2019-05-14T04:34:43.303Z,4.46
2019-05-14T04:38:05.588Z,5.61
2019-05-14T04:39:50.285Z,4.98
2019-05-14T04:41:33.082Z,5.01
2019-05-14T04:43:13.659Z,5.07
2019-05-14T04:46:33.779Z,5.34
2019-05-14T04:48:42.855Z,5.76
2019-05-14T04:50:31.425Z,6.35
2019-05-14T04:52:13.502Z,4.7
2019-05-14T04:53:53.745Z,4.44
2019-05-14T04:55:33.225Z,4.72
2019-05-14T04:57:13.748Z,4.57
2019-05-14T04:58:53.130Z,4.37
2019-05-14T05:00:33.920Z,4.28
2019-05-14T05:02:13.468Z,4.19
2019-05-14T05:03:53.955Z,4.23
2019-05-14T05:05:45.782Z,4.45
2019-05-14T05:07:31.240Z,4.11
2019-05-14T05:09:12.683Z,4.23
2019-05-14T05:10:52.907Z,4.19
2019-05-14T05:12:33.094Z,4.52
2019-05-14T05:14:12.486Z,4.4
2019-05-14T05:15:52.025Z,4.58
2019-05-14T05:19:28.978Z,4.73
2019-05-14T05:21:10.483Z,4.53
2019-05-14T05:22:52.142Z,4.4
2019-05-14T05:24:32.195Z,4.59
2019-05-14T05:26:12.685Z,4.65
2019-05-14T05:27:52.110Z,4.73
2019-05-14T05:29:34.526Z,4.6
2019-05-14T05:31:13.985Z,4.9
2019-05-14T05:34:42.855Z,4.95
2019-05-14T05:36:22.313Z,4.8
2019-05-14T05:38:01.755Z,4.67
2019-05-14T05:39:41.998Z,4.88
2019-05-14T05:41:22.446Z,4.92
2019-05-14T05:43:01.919Z,4.68
2019-05-14T05:44:42.805Z,4.73
2019-05-14T05:46:22.745Z,5.24
2019-05-14T05:48:05.041Z,5.77
2019-05-14T05:49:48.564Z,4.97
2019-05-14T05:51:30.644Z,4.75
2019-05-14T05:53:12.430Z,5.31
2019-05-14T05:54:52.515Z,5.55
2019-05-14T05:56:32.264Z,4.95
2019-05-14T05:58:11.949Z,4.76
2019-05-14T05:59:51.407Z,5.12
2019-05-14T06:01:54.253Z,4.87
2019-05-14T06:03:51.064Z,5.5
2019-05-14T06:05:32.498Z,5.19
2019-05-14T06:07:12.317Z,5.49
2019-05-14T06:08:52.540Z,5.07
2019-05-14T06:10:32.708Z,4.68
2019-05-14T06:12:12.191Z,4.94
2019-05-14T06:13:52.077Z,5.01
2019-05-14T06:15:53.578Z,10.49
2019-05-14T06:17:42.034Z,4.99
2019-05-14T06:19:22.593Z,5.98
2019-05-14T06:21:02.103Z,6.39
2019-05-14T06:22:41.899Z,4.67
2019-05-14T06:24:22.665Z,5.97
2019-05-14T06:27:42.818Z,6.31
2019-05-14T06:29:22.417Z,6.05
2019-05-14T06:31:02.375Z,5.2
2019-05-14T06:34:24.168Z,5.3
2019-05-14T06:36:03.649Z,5.24
2019-05-14T06:37:43.156Z,5.76
2019-05-14T06:39:22.613Z,5.48
2019-05-14T06:41:02.829Z,5.52
2019-05-14T06:42:42.974Z,5.35
2019-05-14T06:44:22.351Z,6.59
2019-05-14T06:46:02.038Z,6.82
2019-05-14T06:47:41.654Z,6.01
2019-05-14T06:49:21.177Z,5.18
2019-05-14T06:51:01.633Z,5.68
2019-05-14T06:52:42.230Z,6.07
2019-05-14T06:56:02.655Z,5.38
2019-05-14T06:57:42.797Z,7.76
2019-05-14T06:59:22.172Z,6.82
2019-05-14T07:01:02.552Z,5.54
2019-05-14T07:02:49.054Z,5.35
2019-05-14T07:04:30.477Z,5.47
2019-05-14T07:06:12.461Z,5.92
2019-05-14T07:07:52.309Z,9.02
2019-05-14T07:09:32.499Z,6.52
2019-05-14T07:11:12.102Z,6.57
2019-05-14T07:12:53.262Z,5.7
2019-05-14T07:14:32.805Z,5.17
2019-05-14T07:16:12.438Z,7.84
2019-05-14T07:17:52.274Z,5.21
2019-05-14T07:19:32.771Z,5.14
2019-05-14T07:21:12.261Z,5.11
2019-05-14T07:22:51.695Z,4.91
2019-05-14T07:24:31.742Z,5.23
2019-05-14T07:26:14.921Z,5.16
2019-05-14T07:27:58.270Z,4.81
2019-05-14T07:29:40.505Z,4.81
2019-05-14T07:31:22.083Z,5.37
2019-05-14T07:33:02.162Z,6.28
2019-05-14T07:34:42.418Z,5.31
2019-05-14T07:36:22.462Z,5.31
2019-05-14T07:38:02.473Z,5.17
2019-05-14T07:39:42.053Z,5.51
2019-05-14T07:41:22.786Z,5.46
2019-05-14T07:43:02.307Z,5.31
2019-05-14T07:44:42.501Z,5.52
2019-05-14T07:46:22.677Z,5.53
2019-05-14T07:48:02.223Z,5.58
2019-05-14T07:49:41.958Z,5.13
2019-05-14T07:51:22.282Z,5.18
2019-05-14T07:53:04.968Z,5.46
2019-05-14T07:54:48.115Z,5.43
2019-05-14T07:56:30.810Z,5.31
2019-05-14T07:58:11.827Z,5.26
2019-05-14T07:59:51.886Z,5.53
2019-05-14T08:01:31.676Z,5.63
2019-05-14T08:03:11.586Z,5.48
2019-05-14T08:04:52.011Z,5.87
2019-05-14T08:06:31.532Z,5.83
2019-05-14T08:08:11.390Z,5.31
2019-05-14T08:09:51.521Z,5.94
2019-05-14T08:11:31.507Z,5.83
2019-05-14T08:13:11.938Z,6.23
2019-05-14T08:15:22.320Z,5.62
2019-05-14T08:17:08.573Z,6.03
2019-05-14T08:18:50.522Z,5.66
2019-05-14T08:20:31.964Z,6.14
2019-05-14T08:23:52.612Z,5.19
2019-05-14T08:25:32.092Z,5.04
2019-05-14T08:27:11.964Z,4.7
2019-05-14T08:28:52.382Z,4.92
2019-05-14T08:30:31.820Z,4.82
2019-05-14T08:32:12.400Z,4.83
2019-05-14T08:33:51.834Z,4.76
2019-05-14T08:35:36.182Z,4.68
2019-05-14T08:37:19.046Z,4.84
2019-05-14T08:40:42.800Z,5.45
2019-05-14T08:42:22.205Z,5.39
2019-05-14T08:44:02.995Z,5.2
2019-05-14T08:45:45.340Z,5.11
2019-05-14T08:47:29.133Z,5.08
2019-05-14T08:49:10.776Z,4.93
2019-05-14T08:50:51.577Z,4.95
2019-05-14T08:52:32.172Z,4.88
2019-05-14T08:54:11.695Z,5.18
2019-05-14T08:55:52.057Z,5
2019-05-14T08:57:32.711Z,4.97
2019-05-14T08:59:12.849Z,4.94
2019-05-14T09:00:52.289Z,4.73
2019-05-14T09:02:32.264Z,4.87
2019-05-14T09:04:11.968Z,5.25
2019-05-14T09:05:52.631Z,5.39
2019-05-14T09:07:32.291Z,5.03
2019-05-14T09:09:12.851Z,5.26
2019-05-14T09:10:53.129Z,4.6
2019-05-14T09:12:32.625Z,4.45
2019-05-14T09:14:14.617Z,4.53
2019-05-14T09:15:58.211Z,4.19
2019-05-14T09:17:41.795Z,4.6
2019-05-14T09:19:22.668Z,4.55
2019-05-14T09:21:02.222Z,4.6
2019-05-14T09:22:42.559Z,4.55
2019-05-14T09:24:22.374Z,4.95
2019-05-14T09:26:02.307Z,4.83
2019-05-14T09:27:41.660Z,4.52
2019-05-14T09:29:31.766Z,4.41
2019-05-14T09:31:11.864Z,4.31
2019-05-14T09:32:52.753Z,4.35
2019-05-14T09:34:32.450Z,4.19
2019-05-14T09:36:25.735Z,4.63
2019-05-14T09:39:52.183Z,4.63
2019-05-14T09:41:34.292Z,4.52
2019-05-14T09:43:14.009Z,4.65
2019-05-14T09:45:03.557Z,4.82
2019-05-14T09:46:43.093Z,4.53
2019-05-14T09:48:22.687Z,4.43
2019-05-14T09:50:24.861Z,3.62
2019-05-14T09:52:13.658Z,3.69
2019-05-14T09:53:53.181Z,3.38
2019-05-14T09:55:32.728Z,3.24
2019-05-14T09:57:12.279Z,3.04
2019-05-14T09:58:53.050Z,3.23
2019-05-14T10:00:32.484Z,3.42
2019-05-14T10:02:12.573Z,3.17
2019-05-14T10:03:53.071Z,3.36
2019-05-14T10:05:32.683Z,3.35
2019-05-14T10:07:15.315Z,3.38
2019-05-14T10:08:55.420Z,3.11
2019-05-14T10:10:39.622Z,3.4
2019-05-14T10:12:30.156Z,3.39
2019-05-14T10:14:11.323Z,3.07
2019-05-14T10:15:51.946Z,3.24
2019-05-14T10:17:32.419Z,3.23
2019-05-14T10:19:12.181Z,3.26
2019-05-14T10:20:53.038Z,3.27
2019-05-14T10:22:32.996Z,3.4
2019-05-14T10:24:13.092Z,3.33
2019-05-14T10:25:52.856Z,3.34
2019-05-14T10:27:32.549Z,3.21
2019-05-14T10:29:12.333Z,3.21
2019-05-14T10:30:52.571Z,3.33
2019-05-14T10:32:33.157Z,3.7
2019-05-14T10:34:12.704Z,3.62
2019-05-14T10:35:52.320Z,3.77
2019-05-14T10:37:32.366Z,3.37
2019-05-14T10:39:12.788Z,3.37
2019-05-14T10:40:52.703Z,3.07
2019-05-14T10:42:32.870Z,3.32
2019-05-14T10:44:12.652Z,3.88
2019-05-14T10:45:52.862Z,4.16
2019-05-14T10:47:32.567Z,3.98
2019-05-14T10:49:25.972Z,4.02
2019-05-14T10:51:09.799Z,4.11
2019-05-14T10:52:59.121Z,4.1
2019-05-14T10:54:59.018Z,4.03
2019-05-14T10:56:42.491Z,3.61
2019-05-14T10:58:23.208Z,3.44
2019-05-14T11:00:02.963Z,3.84
2019-05-14T11:01:42.642Z,4.45
2019-05-14T11:03:22.400Z,3.34
2019-05-14T11:05:02.447Z,2.98
2019-05-14T11:06:42.298Z,2.96
2019-05-14T11:08:22.558Z,2.8
2019-05-14T11:10:02.373Z,3.05
2019-05-14T11:11:42.192Z,2.83
2019-05-14T11:13:22.551Z,2.6
2019-05-14T11:15:02.455Z,2.9
2019-05-14T11:16:44.746Z,2.71
2019-05-14T11:18:32.798Z,2.85
2019-05-14T11:20:12.699Z,4.25
2019-05-14T11:21:52.519Z,2.6
2019-05-14T11:23:32.758Z,2.63
2019-05-14T11:25:12.975Z,2.63
2019-05-14T11:26:52.665Z,2.63
2019-05-14T11:28:32.495Z,2.84
2019-05-14T11:30:12.459Z,2.81
2019-05-14T11:31:52.234Z,2.74
2019-05-14T11:33:32.991Z,2.77
2019-05-14T11:35:18.853Z,2.4
2019-05-14T11:37:00.784Z,2.63
2019-05-14T11:38:41.262Z,2.56
2019-05-14T11:40:22.352Z,2.56
2019-05-14T11:42:02.792Z,2.41
2019-05-14T11:43:43.326Z,2.41
2019-05-14T11:45:23.179Z,2.43
2019-05-14T11:47:05.948Z,2.46
2019-05-14T11:48:50.563Z,2.24
2019-05-14T11:50:32.385Z,2.32
2019-05-14T11:53:58.419Z,2.14
2019-05-14T11:57:25.414Z,2.26
2019-05-14T11:59:05.005Z,2.4
2019-05-14T12:00:46.857Z,2.41
2019-05-14T12:02:28.424Z,2.29
2019-05-14T12:04:12.432Z,2.36
2019-05-14T12:05:53.143Z,2.41
2019-05-14T12:07:32.814Z,2.4
2019-05-14T12:09:15.354Z,2.51
2019-05-14T12:10:59.181Z,2.55
2019-05-14T12:12:38.664Z,2.38
2019-05-14T12:14:20.735Z,2.35
2019-05-14T12:16:02.530Z,2.4
2019-05-14T12:17:42.902Z,2.24
2019-05-14T12:19:22.371Z,2.27
2019-05-14T12:21:02.832Z,2.01
2019-05-14T12:24:21.685Z,2.22
2019-05-14T12:26:02.226Z,2.45
2019-05-14T12:27:42.127Z,2.18
2019-05-14T12:29:21.635Z,2.14
2019-05-14T12:31:01.771Z,2.18
2019-05-14T12:32:43.150Z,2.18
2019-05-14T12:34:22.610Z,2.23
2019-05-14T12:36:03.984Z,2.41
2019-05-14T12:37:43.454Z,2.66
2019-05-14T12:39:22.946Z,2.56
2019-05-14T12:41:02.544Z,2.5
2019-05-14T12:42:42.347Z,2.44
2019-05-14T12:44:23.028Z,2.09
2019-05-14T12:46:02.235Z,2.44
2019-05-14T12:47:41.906Z,2.34
2019-05-14T12:49:21.596Z,2.37
2019-05-14T12:51:03.173Z,2.45
2019-05-14T12:52:42.616Z,2.94
2019-05-14T12:54:23.314Z,2.53
2019-05-14T12:56:02.765Z,2.32
2019-05-14T12:57:43.173Z,2.31
2019-05-14T12:59:22.664Z,2.02
2019-05-14T13:01:02.979Z,2.07
2019-05-14T13:02:42.585Z,2.28
2019-05-14T13:04:23.003Z,2.18
2019-05-14T13:06:02.494Z,2.05
2019-05-14T13:07:45.208Z,2.39
2019-05-14T13:09:29.046Z,2.44
2019-05-14T13:11:11.328Z,2.66
2019-05-14T13:12:51.275Z,2.5
2019-05-14T13:16:14.075Z,2.26
2019-05-14T13:17:53.661Z,2.5
2019-05-14T13:19:33.107Z,2.46
2019-05-14T13:21:12.716Z,2.41
2019-05-14T13:22:55.073Z,2.47
2019-05-14T13:24:34.519Z,2.69
2019-05-14T13:26:18.859Z,2.49
2019-05-14T13:28:01.207Z,2.06
2019-05-14T13:29:40.645Z,1.93
2019-05-14T13:31:21.849Z,1.96
2019-05-14T13:33:02.675Z,1.98
2019-05-14T13:34:42.986Z,2.05
2019-05-14T13:36:24.179Z,2.09
2019-05-14T13:39:49.448Z,2.08
2019-05-14T13:41:31.887Z,2.23
2019-05-14T13:43:18.678Z,2.25
2019-05-14T13:45:00.025Z,2.14
2019-05-14T13:46:39.569Z,2.26
2019-05-14T13:48:22.105Z,2.12
2019-05-14T13:50:01.999Z,2.16
2019-05-14T13:53:22.352Z,2.23
2019-05-14T13:55:01.737Z,2.13
2019-05-14T13:56:41.910Z,2.32
2019-05-14T14:00:11.512Z,2.2
2019-05-14T14:01:58.795Z,2.01
2019-05-14T14:04:03.516Z,1.96
2019-05-14T14:05:59.330Z,2.04
2019-05-14T14:09:21.766Z,2.1
2019-05-14T14:11:12.285Z,1.93
2019-05-14T14:14:32.740Z,2
2019-05-14T14:16:21.452Z,1.86
2019-05-14T14:18:03.874Z,2.05
2019-05-14T14:19:50.031Z,2.14
2019-05-14T14:23:32.351Z,2.33
2019-05-14T14:25:12.632Z,2.17
2019-05-14T14:26:58.187Z,2.18
2019-05-14T14:28:41.151Z,2.1
2019-05-14T14:30:22.232Z,2.4
2019-05-14T14:32:02.289Z,2.2
2019-05-14T14:33:42.460Z,2.12
2019-05-14T14:35:30.323Z,2.25
2019-05-14T14:37:11.863Z,2.22
2019-05-14T14:38:52.909Z,2.41
2019-05-14T14:40:33.551Z,2.12
2019-05-14T14:42:13.023Z,2.1
2019-05-14T14:45:52.161Z,2.14
2019-05-14T14:47:32.124Z,1.95
2019-05-14T14:49:14.392Z,2.02
2019-05-14T14:50:58.550Z,2.21
2019-05-14T14:52:38.305Z,2.1
2019-05-14T14:54:19.632Z,2.31
2019-05-14T14:56:02.210Z,2.27
2019-05-14T14:59:35.873Z,2.04
2019-05-14T15:01:19.296Z,1.96
2019-05-14T15:03:02.417Z,1.96
2019-05-14T15:04:43.133Z,1.97
2019-05-14T15:06:22.724Z,2.08
2019-05-14T15:08:03.586Z,1.97
2019-05-14T15:09:43.913Z,2.04
2019-05-14T15:11:29.324Z,1.85
2019-05-14T15:13:10.992Z,2.04
2019-05-14T15:14:52.141Z,2.24
2019-05-14T15:16:32.559Z,2.13
2019-05-14T15:19:53.611Z,2.07
2019-05-14T15:21:33.599Z,2.04
2019-05-14T15:23:13.347Z,2.08
2019-05-14T15:24:52.818Z,2.09
2019-05-14T15:26:32.438Z,1.91
2019-05-14T15:29:52.311Z,2.06
2019-05-14T15:31:32.595Z,2
2019-05-14T15:33:12.616Z,2.03
2019-05-14T15:34:54.048Z,2.09
2019-05-14T15:36:33.631Z,2.05
2019-05-14T15:38:14.876Z,2.13
2019-05-14T15:39:54.375Z,2.08
2019-05-14T15:41:33.903Z,2.03
2019-05-14T15:45:01.567Z,2.19
2019-05-14T15:46:44.444Z,1.84
2019-05-14T15:48:23.898Z,1.95
2019-05-14T15:50:03.356Z,1.99
2019-05-14T15:51:43.200Z,1.88
2019-05-14T15:53:22.958Z,1.89
2019-05-14T15:55:02.395Z,1.87
2019-05-14T15:56:42.788Z,1.88
2019-05-14T15:58:24.997Z,1.81
2019-05-14T16:00:09.788Z,2.01
2019-05-14T16:01:49.307Z,1.95
2019-05-14T16:03:31.302Z,1.92
2019-05-14T16:05:13.579Z,2.04
2019-05-14T16:06:53.207Z,2.1
2019-05-14T16:08:33.038Z,2.01
2019-05-14T16:10:12.576Z,2.12
2019-05-14T16:11:52.009Z,2.08
2019-05-14T16:13:32.011Z,1.97
2019-05-14T16:16:55.100Z,1.89
2019-05-14T16:18:34.460Z,1.99
2019-05-14T16:20:18.763Z,2.2
2019-05-14T16:22:11.417Z,2.27
2019-05-14T16:23:51.018Z,2.15
2019-05-14T16:25:31.940Z,2.05
2019-05-14T16:27:11.237Z,1.96
2019-05-14T16:28:50.695Z,2.11
2019-05-14T16:30:32.452Z,2.21
2019-05-14T16:32:11.872Z,1.92
2019-05-14T16:35:39.225Z,2.04
2019-05-14T16:39:09.624Z,2.03
2019-05-14T16:40:52.233Z,2.01
2019-05-14T16:42:32.533Z,1.87
2019-05-14T16:45:52.513Z,1.85
2019-05-14T16:47:32.168Z,1.97
2019-05-14T16:49:12.247Z,2.05
2019-05-14T16:50:52.346Z,2.66
2019-05-14T16:52:32.098Z,1.8
2019-05-14T16:54:11.624Z,1.74
2019-05-14T16:55:52.258Z,1.69
2019-05-14T16:57:32.741Z,1.8
2019-05-14T16:59:12.370Z,1.86
2019-05-14T17:00:51.914Z,1.88
2019-05-14T17:02:32.909Z,1.97
2019-05-14T17:04:12.612Z,2.47
2019-05-14T17:05:52.063Z,2.06
2019-05-14T17:07:32.232Z,1.96
2019-05-14T17:09:12.188Z,1.81
2019-05-14T17:10:51.756Z,2
2019-05-14T17:12:57.129Z,1.72
2019-05-14T17:14:52.734Z,1.88
2019-05-14T17:16:35.394Z,1.8
2019-05-14T17:18:14.969Z,1.84
2019-05-14T17:19:58.739Z,1.71
2019-05-14T17:26:43.953Z,1.76
2019-05-14T17:28:23.562Z,1.78
2019-05-14T17:30:03.129Z,1.77
2019-05-14T17:31:42.656Z,1.81
2019-05-14T17:33:22.167Z,1.96
2019-05-14T17:35:01.849Z,1.72
2019-05-14T17:38:33.031Z,1.86
2019-05-14T17:40:13.125Z,1.81
2019-05-14T17:41:52.521Z,2.05
2019-05-14T17:43:31.940Z,1.99
2019-05-14T17:46:52.193Z,1.89
2019-05-14T17:48:33.064Z,1.82
2019-05-14T17:50:12.666Z,1.85
2019-05-14T17:51:52.162Z,1.94
2019-05-14T17:53:31.865Z,1.87
2019-05-14T17:55:15.584Z,1.89
2019-05-14T17:57:05.652Z,1.81
2019-05-14T17:58:55.098Z,1.79
2019-05-14T18:00:38.051Z,1.78
2019-05-14T18:02:19.050Z,1.62
2019-05-14T18:04:10.605Z,1.85
2019-05-14T18:05:50.026Z,1.79
2019-05-14T18:07:31.921Z,1.69
2019-05-14T18:09:12.492Z,1.67
2019-05-14T18:10:53.070Z,1.75
2019-05-14T18:12:38.076Z,1.75
2019-05-14T18:16:01.365Z,1.83
2019-05-14T18:17:42.682Z,1.78
2019-05-14T18:19:22.221Z,1.9
2019-05-14T18:21:01.671Z,1.79
2019-05-14T18:22:45.712Z,1.74
2019-05-14T18:24:28.497Z,1.7
2019-05-14T18:26:12.351Z,1.81
2019-05-14T18:27:53.212Z,1.65
2019-05-14T18:29:32.394Z,1.6
2019-05-14T18:31:12.950Z,1.67
2019-05-14T18:32:52.356Z,1.67
2019-05-14T18:34:31.180Z,1.65
2019-05-14T18:36:10.677Z,1.61
2019-05-14T18:37:51.613Z,1.68
2019-05-14T18:39:31.806Z,1.84
2019-05-14T18:41:11.891Z,1.67
2019-05-14T18:42:51.471Z,1.67
2019-05-14T18:44:31.855Z,1.69
2019-05-14T18:46:12.002Z,2.71
2019-05-14T18:47:51.902Z,4.38
2019-05-14T18:51:12.351Z,3.35
2019-05-14T18:52:51.270Z,3.73
2019-05-14T18:54:32.605Z,5.41
2019-05-14T18:56:28.944Z,4.67
2019-05-14T18:58:10.332Z,4.16
2019-05-14T18:59:52.627Z,4.66
2019-05-14T19:03:19.656Z,3.33
2019-05-14T19:05:01.147Z,1.92
2019-05-14T19:06:41.700Z,1.76
2019-05-14T19:08:21.268Z,1.75
2019-05-14T19:10:01.997Z,1.8
2019-05-14T19:11:42.205Z,1.75
2019-05-14T19:13:22.031Z,1.71
2019-05-14T19:15:02.418Z,1.79
2019-05-14T19:16:41.994Z,1.79
2019-05-14T19:18:22.621Z,1.81
2019-05-14T19:20:02.328Z,1.84
2019-05-14T19:21:41.894Z,1.98
2019-05-14T19:23:22.141Z,2.07
2019-05-14T19:25:01.468Z,2.05
2019-05-14T19:26:43.755Z,2.09
2019-05-14T19:28:23.317Z,2.01
2019-05-14T19:30:08.210Z,1.95
2019-05-14T19:33:39.705Z,2.08
2019-05-14T19:35:21.074Z,2.1
2019-05-14T19:37:00.581Z,1.87
2019-05-14T19:38:42.241Z,1.9
2019-05-14T19:42:01.163Z,2.14
2019-05-14T19:43:40.530Z,1.83
2019-05-14T19:45:20.022Z,1.92
2019-05-14T19:47:00.955Z,1.97
2019-05-14T19:48:40.467Z,1.82
2019-05-14T19:50:22.120Z,2.19
2019-05-14T19:52:02.239Z,2
2019-05-14T19:53:42.622Z,2.12
2019-05-14T19:55:22.420Z,2.04
2019-05-14T19:57:04.341Z,2.07
2019-05-14T19:58:43.782Z,1.85
2019-05-14T20:00:23.186Z,1.83
2019-05-14T20:02:02.618Z,1.95
2019-05-14T20:03:44.748Z,1.95
2019-05-14T20:05:24.203Z,2
2019-05-14T20:07:08.682Z,1.95
2019-05-14T20:08:50.039Z,2.17
2019-05-14T20:10:31.077Z,2.15
2019-05-14T20:12:10.701Z,2.05
2019-05-14T20:13:51.375Z,2.03
2019-05-14T20:15:30.835Z,2.16
2019-05-14T20:17:12.251Z,2.21
2019-05-14T20:18:52.228Z,2.2
2019-05-14T20:22:12.128Z,2.24
2019-05-14T20:23:51.646Z,2.39
2019-05-14T20:27:18.203Z,3.82
2019-05-14T20:28:59.014Z,3.48
2019-05-14T20:30:41.742Z,4.17
2019-05-14T20:32:22.875Z,3.19
2019-05-14T20:34:02.506Z,3.57
2019-05-14T20:35:41.592Z,3.13
2019-05-14T20:37:22.330Z,2.6
2019-05-14T20:40:48.644Z,2.23
2019-05-14T20:42:30.682Z,2.17
2019-05-14T20:44:10.219Z,2.45
2019-05-14T20:45:51.669Z,2.84
2019-05-14T20:47:30.907Z,2.68
2019-05-14T20:49:12.203Z,2.6
2019-05-14T20:50:51.742Z,2.48
2019-05-14T20:52:31.781Z,2.37
2019-05-14T20:54:12.213Z,2.27
2019-05-14T20:55:51.327Z,2.47
2019-05-14T20:57:37.988Z,2.28
2019-05-14T20:59:29.989Z,2.22
2019-05-14T21:01:14.889Z,2.24
2019-05-14T21:02:59.210Z,2.07
2019-05-14T21:04:39.477Z,1.99
2019-05-14T21:06:20.646Z,2.18
2019-05-14T21:09:42.451Z,2.14
2019-05-14T21:11:22.791Z,2.2
2019-05-14T21:13:02.935Z,2.09
2019-05-14T21:14:45.016Z,2.18
2019-05-14T21:16:38.930Z,2.19
2019-05-14T21:18:40.686Z,2.2
2019-05-14T21:20:21.543Z,2.12
2019-05-14T21:22:02.405Z,2.22
2019-05-14T21:23:45.205Z,2.1
2019-05-14T21:25:29.530Z,2.06
2019-05-14T21:27:11.162Z,2.2
2019-05-14T21:28:52.295Z,2.45
2019-05-14T21:32:13.190Z,2.53
2019-05-14T21:33:53.175Z,2.46
2019-05-14T21:35:33.186Z,2.21
2019-05-14T21:37:13.058Z,2.17
2019-05-14T21:38:52.849Z,2.45
2019-05-14T21:40:35.639Z,2.49
2019-05-14T21:42:19.443Z,2.35
2019-05-14T21:45:43.817Z,2.45
2019-05-14T21:47:23.708Z,2.32
2019-05-14T21:49:03.637Z,2.1
2019-05-14T21:50:43.553Z,2.25
2019-05-14T21:52:23.456Z,1.96
2019-05-14T21:54:03.301Z,2.28
2019-05-14T21:55:43.106Z,2.16
2019-05-14T21:57:23.010Z,2.27
2019-05-14T21:59:04.921Z,2.18
2019-05-14T22:02:34.118Z,2.28
2019-05-14T22:04:22.342Z,2.44
2019-05-14T22:06:02.921Z,2.29
2019-05-14T22:07:42.738Z,2.16
2019-05-14T22:09:22.716Z,2.26
2019-05-14T22:11:02.681Z,2.42
2019-05-14T22:12:43.152Z,2.47
2019-05-14T22:14:23.064Z,2.48
2019-05-14T22:16:02.971Z,2.42
2019-05-14T22:17:42.923Z,2.45
2019-05-14T22:19:22.834Z,2.34
2019-05-14T22:21:02.707Z,2.56
2019-05-14T22:22:42.781Z,2.4
2019-05-14T22:24:24.631Z,2.56
2019-05-14T22:26:06.843Z,2.61
2019-05-14T22:27:48.333Z,2.46
2019-05-14T22:29:30.511Z,2.46
2019-05-14T22:31:12.702Z,2.48
2019-05-14T22:32:55.307Z,2.54
2019-05-14T22:36:25.136Z,2.47
2019-05-14T22:38:07.629Z,2.36
2019-05-14T22:39:48.024Z,2.52
2019-05-14T22:43:21.944Z,2.48
2019-05-14T22:45:01.984Z,2.58
2019-05-14T22:46:43.834Z,2.5
2019-05-14T22:48:23.720Z,2.39
2019-05-14T22:50:03.620Z,2.56
2019-05-14T22:51:43.521Z,2.38
2019-05-14T22:53:23.637Z,2.54
2019-05-14T22:55:03.466Z,2.47
2019-05-14T22:56:43.325Z,2.44
2019-05-14T22:58:30.744Z,2.28
2019-05-14T23:00:10.672Z,2.27
2019-05-14T23:01:51.594Z,2.2
2019-05-14T23:03:32.490Z,2.38
2019-05-14T23:05:12.367Z,2.4
2019-05-14T23:06:52.387Z,2.41
2019-05-14T23:08:32.297Z,2.3
2019-05-14T23:10:12.640Z,2.25
2019-05-14T23:11:52.503Z,2.37
2019-05-14T23:13:32.447Z,2.55
2019-05-14T23:15:12.364Z,2.36
2019-05-14T23:16:52.700Z,2.34
2019-05-14T23:18:32.599Z,2.43
2019-05-14T23:21:58.018Z,2.45
2019-05-14T23:23:39.406Z,2.24
2019-05-14T23:25:29.128Z,2.52
2019-05-14T23:27:11.768Z,2.32
2019-05-14T23:28:52.708Z,2.29
2019-05-14T23:30:32.557Z,2.32
2019-05-14T23:32:12.433Z,2.47
2019-05-14T23:33:52.576Z,2.36
2019-05-14T23:35:32.415Z,2.42
2019-05-14T23:37:12.256Z,2.62
2019-05-14T23:38:52.790Z,2.59
2019-05-14T23:40:32.728Z,2.69
2019-05-14T23:42:12.596Z,2.45
2019-05-14T23:43:52.479Z,2.45
2019-05-14T23:45:32.393Z,2.39
2019-05-14T23:47:12.272Z,2.46
2019-05-14T23:48:52.134Z,2.39
2019-05-14T23:50:31.984Z,2.52
2019-05-14T23:52:11.824Z,2.52
2019-05-14T23:53:51.896Z,2.63
2019-05-14T23:55:32.557Z,2.41
2019-05-14T23:57:12.530Z,2.42
2019-05-14T23:59:03.906Z,2.41
